Time;durP1;ratioP1;P1;durP2;ratioP2;P2;SDS_P1;SDS_P2;PMS_P1;PMS_P2;Temp;Humidity;BMP_temperature;BMP_pressure;BME280_temperature;BME280_humidity;BME280_pressure;Samples;Min_cycle;Max_cycle;Signal;HPM_P1;HPM_P2
2023/07/03 00:00:22;;;;;;;13.43;12.20;;;;;;;22.51;100.00;100818.03;2080693;28;20200;-67
2023/07/03 00:01:22;;;;;;;13.40;12.30;;;;;;;22.45;100.00;100816.47;2080740;28;20647;-67
2023/07/03 00:02:23;;;;;;;12.93;11.83;;;;;;;22.49;100.00;100822.66;2080547;28;20367;-67
2023/07/03 00:03:23;;;;;;;13.97;12.67;;;;;;;22.45;100.00;100822.91;2080408;28;20185;-67
2023/07/03 00:04:24;;;;;;;13.43;12.17;;;;;;;22.43;100.00;100824.66;2080947;28;20769;-67
2023/07/03 00:05:24;;;;;;;13.53;12.13;;;;;;;22.38;100.00;100825.41;2080386;28;20192;-67
2023/07/03 00:06:25;;;;;;;12.77;11.57;;;;;;;22.35;100.00;100827.19;2080853;28;20196;-67
2023/07/03 00:07:25;;;;;;;13.47;12.17;;;;;;;22.38;100.00;100833.88;2081025;28;20272;-67
2023/07/03 00:08:26;;;;;;;13.17;11.93;;;;;;;22.37;100.00;100829.53;2080779;28;20632;-67
2023/07/03 00:09:26;;;;;;;13.47;12.17;;;;;;;22.37;100.00;100818.22;2080791;28;20254;-67
2023/07/03 00:10:27;;;;;;;13.40;12.10;;;;;;;22.40;100.00;100829.28;2079904;28;20184;-67
2023/07/03 00:11:27;;;;;;;12.80;11.53;;;;;;;22.37;100.00;100827.44;2080048;28;20177;-67
2023/07/03 00:12:28;;;;;;;14.33;12.83;;;;;;;21.88;100.00;100760.31;2072915;28;20177;-67
2023/07/03 00:13:28;;;;;;;13.47;12.07;;;;;;;22.31;100.00;100826.66;2079867;28;20185;-67
2023/07/03 00:14:28;;;;;;;13.30;12.07;;;;;;;22.33;100.00;100838.25;2080849;28;20220;-68
2023/07/03 00:15:29;;;;;;;14.00;11.77;;;;;;;22.26;100.00;100835.13;2080520;28;20216;-68
2023/07/03 00:16:29;;;;;;;13.50;12.07;;;;;;;22.26;100.00;100830.25;2080822;28;20251;-68
2023/07/03 00:17:30;;;;;;;13.37;12.17;;;;;;;22.22;100.00;100832.53;2080781;28;20647;-68
2023/07/03 00:18:31;;;;;;;13.23;12.03;;;;;;;22.10;100.00;100833.78;2080420;28;20634;-68
2023/07/03 00:19:31;;;;;;;15.13;13.53;;;;;;;21.72;100.00;100794.09;2080699;28;20242;-68
2023/07/03 00:20:32;;;;;;;13.53;12.23;;;;;;;22.07;100.00;100836.84;2080662;28;20419;-68
2023/07/03 00:21:32;;;;;;;13.67;12.07;;;;;;;22.11;100.00;100848.66;2080921;28;20180;-68
2023/07/03 00:22:33;;;;;;;13.70;12.40;;;;;;;21.63;100.00;100772.47;2080493;28;20276;-68
2023/07/03 00:23:33;;;;;;;14.70;13.30;;;;;;;22.02;100.00;100848.88;2080129;28;20200;-68
2023/07/03 00:24:34;;;;;;;14.50;13.00;;;;;;;21.86;100.00;100852.38;2080757;28;20189;-68
2023/07/03 00:25:34;;;;;;;13.70;12.50;;;;;;;21.00;100.00;100700.59;2080254;28;20658;-68
2023/07/03 00:26:35;;;;;;;13.27;11.97;;;;;;;21.41;100.00;100766.72;2080683;28;20193;-68
2023/07/03 00:27:35;;;;;;;13.83;12.53;;;;;;;21.94;100.00;100857.03;2080092;28;20633;-68
2023/07/03 00:28:35;;;;;;;14.27;12.93;;;;;;;21.91;100.00;100852.41;2080512;28;20623;-68
2023/07/03 00:29:36;;;;;;;15.43;11.97;;;;;;;21.92;100.00;100847.53;2081145;28;20255;-68
2023/07/03 00:30:36;;;;;;;15.03;11.80;;;;;;;21.96;100.00;100860.13;2080189;28;20303;-68
2023/07/03 00:31:37;;;;;;;13.00;11.80;;;;;;;21.96;100.00;100862.19;2080367;28;20193;-68
2023/07/03 00:32:37;;;;;;;14.07;12.73;;;;;;;21.99;100.00;100858.34;2079990;28;20720;-67
2023/07/03 00:33:37;;;;;;;13.83;12.10;;;;;;;21.64;100.00;100801.47;2079521;28;20737;-67
2023/07/03 00:34:38;;;;;;;14.37;12.43;;;;;;;21.44;100.00;100770.56;2080734;28;20557;-67
2023/07/03 00:35:39;;;;;;;13.80;12.50;;;;;;;21.74;100.00;100831.78;2080387;28;20203;-68
2023/07/03 00:36:39;;;;;;;13.53;12.33;;;;;;;21.77;100.00;100827.19;2080707;28;20260;-68
2023/07/03 00:37:40;;;;;;;15.03;12.07;;;;;;;21.98;100.00;100865.28;2080215;28;20279;-68
2023/07/03 00:38:40;;;;;;;17.87;12.30;;;;;;;21.81;100.00;100828.50;2079693;28;20205;-68
2023/07/03 00:39:41;;;;;;;15.20;12.43;;;;;;;21.95;100.00;100855.00;2080702;28;20201;-68
2023/07/03 00:40:41;;;;;;;15.57;12.30;;;;;;;21.50;100.00;100786.22;2080616;28;20184;-68
2023/07/03 00:41:42;;;;;;;13.67;12.33;;;;;;;22.01;100.00;100861.44;2080245;28;20634;-68
2023/07/03 00:42:42;;;;;;;15.70;12.53;;;;;;;21.82;100.00;100838.53;2079760;28;20227;-68
2023/07/03 00:43:43;;;;;;;15.93;12.87;;;;;;;22.01;100.00;100858.63;2079351;28;20303;-68
2023/07/03 00:44:43;;;;;;;12.83;11.67;;;;;;;22.02;100.00;100863.78;2080618;28;20211;-68
2023/07/03 00:45:45;;;;;;;13.53;12.20;;;;;;;21.92;100.00;100853.19;2080565;28;20630;-68
2023/07/03 00:46:48;;;;;;;13.70;12.30;;;;;;;21.44;100.00;100779.78;2072582;28;20174;-68
2023/07/03 00:47:49;;;;;;;13.63;12.00;;;;;;;22.00;100.00;100866.31;2080119;28;20307;-68
2023/07/03 00:48:50;;;;;;;14.47;12.83;;;;;;;21.98;100.00;100854.75;2080717;28;20336;-68
2023/07/03 00:49:51;;;;;;;14.77;12.03;;;;;;;21.74;100.00;100822.59;2080652;28;20546;-68
2023/07/03 00:50:52;;;;;;;16.17;12.70;;;;;;;22.01;100.00;100861.44;2080628;28;20602;-68
2023/07/03 00:51:55;;;;;;;14.13;12.30;;;;;;;22.01;100.00;100862.19;2077289;28;20308;-68
2023/07/03 00:53:00;;;;;;;14.53;12.10;;;;;;;21.98;100.00;100866.06;2074910;28;20169;-68
2023/07/03 00:54:00;;;;;;;14.10;12.33;;;;;;;21.71;100.00;100815.13;2077927;28;20188;-68
2023/07/03 00:55:01;;;;;;;14.20;11.80;;;;;;;22.01;100.00;100865.03;2073002;28;20184;-68
2023/07/03 00:56:03;;;;;;;15.23;12.23;;;;;;;21.74;100.00;100819.75;2079599;28;20189;-68
2023/07/03 00:57:04;;;;;;;16.20;12.20;;;;;;;22.00;100.00;100859.91;2080417;28;20634;-68
2023/07/03 00:58:04;;;;;;;15.20;11.67;;;;;;;21.99;100.00;100853.47;2080391;28;20193;-68
2023/07/03 00:59:05;;;;;;;15.17;12.17;;;;;;;22.02;100.00;100858.13;2080618;28;20227;-68
2023/07/03 01:00:09;;;;;;;13.67;12.03;;;;;;;22.00;100.00;100857.09;2080506;28;20188;-68
2023/07/03 01:01:34;;;;;;;12.73;11.43;;;;;;;22.00;100.00;100857.09;2080455;28;20196;-68
2023/07/03 01:02:44;;;;;;;13.40;12.00;;;;;;;22.01;100.00;100862.19;2080467;28;20571;-68
2023/07/03 01:03:51;;;;;;;13.60;12.33;;;;;;;22.02;100.00;100866.59;2080238;28;20574;-68
2023/07/03 01:05:05;;;;;;;12.33;11.13;;;;;;;21.94;100.00;100859.09;2080298;28;20237;-68
2023/07/03 01:06:11;;;;;;;11.73;10.60;;;;;;;21.81;100.00;100856.69;2079952;28;20199;-68
2023/07/03 01:07:14;;;;;;;12.90;11.60;;;;;;;21.59;100.00;100844.50;2080029;28;20263;-68
2023/07/03 01:08:15;;;;;;;14.60;11.73;;;;;;;21.70;100.00;100858.72;2080316;28;20445;-68
2023/07/03 01:09:19;;;;;;;15.17;11.50;;;;;;;21.66;100.00;100852.50;2080620;28;20435;-68
2023/07/03 01:10:22;;;;;;;14.00;12.60;;;;;;;21.01;100.00;100763.34;2079737;28;20193;-68
2023/07/03 01:11:23;;;;;;;12.73;11.17;;;;;;;21.76;100.00;100865.16;2082159;28;20431;-68
2023/07/03 01:12:27;;;;;;;14.20;12.47;;;;;;;21.75;100.00;100863.59;2082118;28;20295;-68
2023/07/03 01:13:30;;;;;;;12.13;10.80;;;;;;;21.63;100.00;100853.47;2081703;28;20552;-68
2023/07/03 01:14:32;;;;;;;12.67;11.37;;;;;;;21.81;100.00;100864.41;2082148;28;20431;-68
2023/07/03 01:15:36;;;;;;;12.57;11.27;;;;;;;21.74;100.00;100856.44;2081920;28;20451;-68
2023/07/03 01:16:37;;;;;;;12.97;11.67;;;;;;;20.99;100.00;100749.75;2082282;28;20470;-68
2023/07/03 01:17:40;;;;;;;12.57;11.27;;;;;;;21.77;100.00;100875.16;2082108;28;20292;-68
2023/07/03 01:18:43;;;;;;;13.10;11.90;;;;;;;21.78;100.00;100874.66;2082085;28;20208;-68
2023/07/03 01:19:47;;;;;;;12.47;11.33;;;;;;;21.59;100.00;100836.03;2082179;28;20442;-68
2023/07/03 01:20:58;;;;;;;13.33;12.03;;;;;;;21.74;100.00;100868.47;2082212;28;20505;-68
2023/07/03 01:22:08;;;;;;;12.13;10.83;;;;;;;21.83;100.00;100871.09;2081801;28;20435;-68
2023/07/03 01:23:28;;;;;;;12.93;11.53;;;;;;;21.82;100.00;100871.59;2082260;28;20500;-68
2023/07/03 01:24:46;;;;;;;14.40;11.77;;;;;;;21.84;100.00;100881.09;2081898;28;20430;-68
2023/07/03 01:25:49;;;;;;;13.93;11.10;;;;;;;21.84;100.00;100874.66;2081966;28;20493;-68
2023/07/03 01:26:50;;;;;;;12.33;11.17;;;;;;;21.83;100.00;100879.56;2082082;28;20952;-68
2023/07/03 01:27:52;;;;;;;12.43;10.97;;;;;;;21.84;100.00;100874.66;2084248;28;20835;-68
2023/07/03 01:28:58;;;;;;;12.10;11.03;;;;;;;21.83;100.00;100879.56;2077572;28;20184;-68
2023/07/03 01:30:00;;;;;;;12.10;10.90;;;;;;;21.84;100.00;100878.28;2077325;28;20459;-68
2023/07/03 01:31:07;;;;;;;13.17;11.67;;;;;;;21.86;100.00;100880.59;2076993;28;20579;-68
2023/07/03 01:32:10;;;;;;;11.87;10.77;;;;;;;21.86;100.00;100880.59;2079168;28;20327;-68
2023/07/03 01:33:17;;;;;;;11.60;10.40;;;;;;;21.75;100.00;100863.59;2075954;28;20439;-68
2023/07/03 01:34:19;;;;;;;11.93;10.63;;;;;;;21.84;100.00;100883.13;2081040;28;20817;-68
2023/07/03 01:35:22;;;;;;;11.53;10.40;;;;;;;21.88;100.00;100886.50;2081009;28;20264;-68
2023/07/03 01:36:24;;;;;;;12.27;11.10;;;;;;;21.82;100.00;100886.47;2081926;28;20431;-68
2023/07/03 01:37:27;;;;;;;14.40;11.27;;;;;;;21.28;100.00;100841.72;2082417;28;20569;-68
2023/07/03 01:38:29;;;;;;;14.47;11.33;;;;;;;21.70;100.00;100890.47;2081673;28;20442;-68
2023/07/03 01:39:30;;;;;;;12.27;11.07;;;;;;;21.74;100.00;100884.63;2074357;28;20451;-68
2023/07/03 01:40:32;;;;;;;12.83;10.93;;;;;;;21.74;100.00;100884.63;2081342;28;20449;-68
2023/07/03 01:41:32;;;;;;;12.17;11.07;;;;;;;21.68;100.00;100873.31;2082120;28;20480;-68
2023/07/03 01:42:35;;;;;;;13.03;10.87;;;;;;;21.71;100.00;100882.81;2081869;28;20197;-68
2023/07/03 01:43:38;;;;;;;14.87;10.73;;;;;;;21.76;100.00;100885.69;2078191;28;20237;-68
2023/07/03 01:44:39;;;;;;;12.00;10.80;;;;;;;21.72;100.00;100875.88;2078268;28;20416;-68
2023/07/03 01:45:48;;;;;;;14.43;10.93;;;;;;;21.76;100.00;100888.50;2087650;28;20177;-68
2023/07/03 01:46:49;;;;;;;12.53;10.90;;;;;;;21.76;100.00;100880.03;2074968;28;20169;-68
2023/07/03 01:47:49;;;;;;;15.17;11.63;;;;;;;21.74;100.00;100882.56;2081885;28;20925;-68
2023/07/03 01:48:49;;;;;;;13.43;10.73;;;;;;;21.75;100.00;100878.47;2082265;28;20196;-68
2023/07/03 01:49:50;;;;;;;15.10;10.80;;;;;;;21.76;100.00;100885.69;2081796;28;20246;-68
2023/07/03 01:50:51;;;;;;;14.00;10.90;;;;;;;21.79;100.00;100883.88;2081898;28;20254;-68
2023/07/03 01:52:23;;;;;;;14.63;11.00;;;;;;;21.81;100.00;100881.34;2081830;28;20211;-68
2023/07/03 01:53:32;;;;;;;13.10;10.67;;;;;;;21.31;100.00;100813.28;2080617;28;20459;-68
2023/07/03 01:55:09;;;;;;;12.47;9.83;;;;;;;21.78;100.00;100882.31;2082143;28;20211;-68
2023/07/03 01:56:25;;;;;;;15.67;10.83;;;;;;;21.74;100.00;100882.56;2082248;28;20224;-68
2023/07/03 01:57:42;;;;;;;13.13;10.27;;;;;;;21.74;100.00;100882.56;2081739;28;20195;-68
2023/07/03 01:58:47;;;;;;;14.73;10.73;;;;;;;21.78;100.00;100885.94;2081701;28;20200;-68
2023/07/03 01:59:51;;;;;;;11.27;10.10;;;;;;;21.80;100.00;100882.63;2081970;28;20720;-68
2023/07/03 02:00:56;;;;;;;10.97;9.87;;;;;;;21.80;100.00;100874.91;2082004;28;20201;-68
2023/07/03 02:02:22;;;;;;;13.37;10.23;;;;;;;21.81;100.00;100879.28;2081740;28;20191;-68
2023/07/03 02:03:32;;;;;;;10.80;9.70;;;;;;;21.82;100.00;100880.84;2081636;28;20666;-68
2023/07/03 02:04:43;;;;;;;10.93;9.83;;;;;;;21.79;100.00;100884.66;2081669;28;20200;-68
2023/07/03 02:05:45;;;;;;;14.37;10.70;;;;;;;21.75;100.00;100872.06;2081579;28;20224;-68
2023/07/03 02:06:47;;;;;;;13.40;9.83;;;;;;;21.47;100.00;100825.94;2081829;28;20181;-68
2023/07/03 02:07:52;;;;;;;11.90;10.20;;;;;;;21.44;100.00;100819.25;2081499;28;20193;-68
2023/07/03 02:08:53;;;;;;;10.97;9.97;;;;;;;21.78;100.00;100883.13;2081070;28;20203;-68
2023/07/03 02:09:54;;;;;;;10.93;9.87;;;;;;;21.80;100.00;100879.78;2081032;28;20177;-68
2023/07/03 02:10:56;;;;;;;12.23;10.40;;;;;;;21.26;100.00;100799.94;2081660;28;20197;-68
2023/07/03 02:11:56;;;;;;;11.93;10.17;;;;;;;21.79;100.00;100873.38;2081512;28;20202;-68
2023/07/03 02:12:56;;;;;;;11.20;10.10;;;;;;;21.82;100.00;100885.69;2082091;28;20177;-68
2023/07/03 02:13:57;;;;;;;12.07;10.63;;;;;;;21.81;100.00;100884.16;2080930;28;20662;-68
2023/07/03 02:15:02;;;;;;;11.77;10.53;;;;;;;21.80;100.00;100880.56;2081064;28;20235;-68
2023/07/03 02:16:03;;;;;;;12.77;10.20;;;;;;;21.34;100.00;100815.09;2081693;28;20187;-68
2023/07/03 02:17:06;;;;;;;11.53;9.87;;;;;;;21.38;100.00;100828.94;2081803;28;20208;-68
2023/07/03 02:18:07;;;;;;;10.67;9.60;;;;;;;21.76;100.00;100884.91;2081411;28;20188;-68
2023/07/03 02:19:08;;;;;;;11.87;10.37;;;;;;;21.41;100.00;100825.91;2089058;28;20270;-68
2023/07/03 02:20:14;;;;;;;12.03;10.40;;;;;;;21.81;100.00;100886.97;2089196;28;20183;-68
2023/07/03 02:21:15;;;;;;;11.43;9.93;;;;;;;21.80;100.00;100902.38;2081777;28;20647;-68
2023/07/03 02:22:15;;;;;;;10.57;9.57;;;;;;;21.79;100.00;100892.34;2080650;28;20181;-68
2023/07/03 02:23:16;;;;;;;10.70;9.67;;;;;;;21.80;100.00;100894.66;2090043;28;20270;-68
2023/07/03 02:24:16;;;;;;;11.73;9.70;;;;;;;21.82;100.00;100892.13;2082211;28;20189;-68
2023/07/03 02:25:17;;;;;;;12.07;9.80;;;;;;;21.81;100.00;100889.81;2081151;28;20185;-68
2023/07/03 02:26:17;;;;;;;10.40;9.33;;;;;;;21.77;100.00;100886.44;2081434;28;20188;-68
2023/07/03 02:27:19;;;;;;;10.93;9.77;;;;;;;21.72;100.00;100881.53;2081691;28;20277;-68
2023/07/03 02:28:19;;;;;;;11.93;9.90;;;;;;;20.58;100.00;100717.38;2081468;28;20196;-68
2023/07/03 02:29:20;;;;;;;10.83;9.80;;;;;;;21.73;100.00;100897.16;2081694;28;20443;-68
2023/07/03 02:30:20;;;;;;;11.13;9.97;;;;;;;21.75;100.00;100889.75;2081457;28;20189;-68
2023/07/03 02:31:21;;;;;;;10.57;9.47;;;;;;;21.74;100.00;100899.50;2081856;28;20235;-68
2023/07/03 02:32:21;;;;;;;10.63;9.47;;;;;;;21.74;100.00;100898.75;2081439;28;20220;-68
2023/07/03 02:33:22;;;;;;;11.00;9.77;;;;;;;21.72;100.00;100898.44;2081190;28;20177;-68
2023/07/03 02:34:22;;;;;;;10.90;9.90;;;;;;;21.74;100.00;100899.50;2081330;28;20203;-68
2023/07/03 02:35:24;;;;;;;11.53;10.33;;;;;;;21.74;100.00;100907.19;2081322;28;20205;-68
2023/07/03 02:36:29;;;;;;;11.47;9.87;;;;;;;21.71;100.00;100900.50;2081067;28;20205;-68
2023/07/03 02:37:30;;;;;;;12.03;10.70;;;;;;;21.75;100.00;100911.56;2081808;28;20951;-68
2023/07/03 02:38:31;;;;;;;10.77;9.67;;;;;;;21.74;100.00;100905.13;2081116;28;20449;-68
2023/07/03 02:39:31;;;;;;;13.53;9.90;;;;;;;21.73;100.00;100906.41;2081461;28;20419;-68
2023/07/03 02:40:33;;;;;;;10.53;9.53;;;;;;;21.73;100.00;100906.41;2081633;28;20263;-68
2023/07/03 02:41:34;;;;;;;11.33;10.00;;;;;;;21.71;100.00;100911.00;2081417;28;20673;-68
2023/07/03 02:42:34;;;;;;;15.20;9.87;;;;;;;21.72;100.00;100904.09;2081671;28;20539;-68
2023/07/03 02:43:35;;;;;;;12.27;10.30;;;;;;;21.46;100.00;100869.53;2075081;28;20221;-68
2023/07/03 02:44:35;;;;;;;10.83;9.70;;;;;;;21.69;100.00;100910.75;2077860;28;20233;-68
2023/07/03 02:45:38;;;;;;;11.67;9.77;;;;;;;21.70;100.00;100907.41;2077748;28;20185;-68
2023/07/03 02:46:39;;;;;;;12.00;9.87;;;;;;;21.71;100.00;100908.19;2075930;28;20300;-68
2023/07/03 02:47:39;;;;;;;11.10;9.87;;;;;;;21.68;100.00;100906.34;2079740;28;20665;-68
2023/07/03 02:48:40;;;;;;;16.37;10.20;;;;;;;21.69;100.00;100908.69;2073641;28;20571;-68
2023/07/03 02:49:41;;;;;;;11.77;9.80;;;;;;;21.72;100.00;100901.28;2081067;28;20642;-68
2023/07/03 02:50:41;;;;;;;10.77;9.67;;;;;;;21.35;100.00;100856.09;2080004;28;20182;-67
2023/07/03 02:51:42;;;;;;;12.87;10.50;;;;;;;21.73;100.00;100909.25;2081202;28;20192;-67
2023/07/03 02:52:42;;;;;;;11.63;10.20;;;;;;;21.56;100.00;100887.78;2081556;28;20188;-67
2023/07/03 02:53:43;;;;;;;16.03;10.07;;;;;;;21.75;100.00;100917.97;2080779;28;20243;-67
2023/07/03 02:54:43;;;;;;;11.20;9.90;;;;;;;21.74;100.00;100907.97;2080462;28;20248;-67
2023/07/03 02:55:44;;;;;;;12.17;10.53;;;;;;;21.72;100.00;100909.72;2080522;28;20184;-67
2023/07/03 02:56:44;;;;;;;12.67;10.67;;;;;;;21.71;100.00;100911.81;2074059;28;20212;-67
2023/07/03 02:57:44;;;;;;;11.47;10.23;;;;;;;21.72;100.00;100910.53;2081631;28;20185;-67
2023/07/03 02:58:45;;;;;;;11.13;10.00;;;;;;;21.70;100.00;100913.06;2081107;28;20259;-67
2023/07/03 02:59:45;;;;;;;13.40;9.77;;;;;;;21.16;100.00;100838.03;2081558;28;20239;-67
2023/07/03 03:00:46;;;;;;;10.80;9.77;;;;;;;21.48;100.00;100881.84;2074828;28;20241;-67
2023/07/03 03:01:47;;;;;;;14.57;10.90;;;;;;;21.63;100.00;100904.25;2077123;28;20185;-67
2023/07/03 03:02:48;;;;;;;12.17;10.00;;;;;;;21.67;100.00;100913.25;2081223;28;20185;-68
2023/07/03 03:03:48;;;;;;;18.07;10.47;;;;;;;21.68;100.00;100912.78;2080199;28;20224;-68
2023/07/03 03:04:49;;;;;;;14.50;10.63;;;;;;;21.32;100.00;100854.28;2079886;28;20558;-68
2023/07/03 03:05:49;;;;;;;13.97;10.17;;;;;;;21.72;100.00;100916.16;2081278;28;20609;-68
2023/07/03 03:06:49;;;;;;;12.70;10.40;;;;;;;21.74;100.00;100915.66;2081593;28;20662;-68
2023/07/03 03:07:50;;;;;;;11.13;10.00;;;;;;;21.71;100.00;100917.44;2081307;28;20193;-67
2023/07/03 03:08:50;;;;;;;13.30;10.10;;;;;;;21.71;100.00;100917.44;2081158;28;20200;-68
2023/07/03 03:09:51;;;;;;;13.83;10.87;;;;;;;21.39;100.00;100867.16;2081394;28;20193;-68
2023/07/03 03:10:51;;;;;;;10.83;9.73;;;;;;;21.72;100.00;100918.97;2081352;28;20655;-68
2023/07/03 03:11:52;;;;;;;11.10;9.83;;;;;;;21.75;100.00;100912.31;2081363;28;20726;-68
2023/07/03 03:12:52;;;;;;;11.97;10.10;;;;;;;21.79;100.00;100920.53;2081365;28;20564;-68
2023/07/03 03:13:53;;;;;;;11.30;10.20;;;;;;;21.77;100.00;100918.25;2081177;28;20189;-68
2023/07/03 03:14:53;;;;;;;12.03;10.80;;;;;;;21.61;100.00;100901.94;2083246;28;20196;-68
2023/07/03 03:15:54;;;;;;;11.60;10.50;;;;;;;21.79;100.00;100923.38;2081138;28;20202;-68
2023/07/03 03:16:55;;;;;;;11.87;10.57;;;;;;;21.79;100.00;100915.69;2087918;28;20222;-68
2023/07/03 03:17:55;;;;;;;11.53;10.30;;;;;;;21.49;100.00;100860.81;2084014;28;20185;-68
2023/07/03 03:18:56;;;;;;;11.50;10.30;;;;;;;21.81;100.00;100915.94;2085100;28;20311;-68
2023/07/03 03:19:56;;;;;;;12.63;10.87;;;;;;;21.84;100.00;100914.94;2086335;28;20262;-68
2023/07/03 03:20:56;;;;;;;11.80;10.70;;;;;;;21.79;100.00;100912.09;2079398;28;20251;-68
2023/07/03 03:21:57;;;;;;;12.43;10.47;;;;;;;21.68;100.00;100897.88;2073542;28;20196;-68
2023/07/03 03:22:58;;;;;;;11.80;10.60;;;;;;;21.83;100.00;100916.22;2081347;28;20184;-68
2023/07/03 03:23:58;;;;;;;12.83;10.27;;;;;;;21.79;100.00;100918.50;2072963;28;20204;-67
2023/07/03 03:24:59;;;;;;;12.27;10.17;;;;;;;21.61;100.00;100878.59;2079447;28;20623;-67
2023/07/03 03:25:59;;;;;;;12.30;9.80;;;;;;;21.74;100.00;100912.84;2075602;28;20201;-67
2023/07/03 03:27:05;;;;;;;11.87;10.50;;;;;;;21.82;100.00;100925.19;2077314;28;20226;-67
2023/07/03 03:28:06;;;;;;;12.33;10.63;;;;;;;21.83;100.00;100930.34;2081144;28;20285;-67
2023/07/03 03:29:06;;;;;;;12.03;10.83;;;;;;;21.86;100.00;100923.69;2084125;28;20433;-68
2023/07/03 03:30:08;;;;;;;11.43;10.23;;;;;;;21.51;100.00;100875.22;2086629;28;20186;-68
2023/07/03 03:31:08;;;;;;;11.40;10.20;;;;;;;21.92;100.00;100924.50;2080491;28;20446;-67
2023/07/03 03:32:08;;;;;;;12.13;10.67;;;;;;;21.93;100.00;100923.22;2081345;28;20177;-67
2023/07/03 03:33:09;;;;;;;13.37;11.10;;;;;;;21.92;100.00;100921.69;2081000;28;20647;-67
2023/07/03 03:34:09;;;;;;;10.97;9.97;;;;;;;21.44;100.00;100846.69;2086781;28;20564;-67
2023/07/03 03:35:10;;;;;;;12.53;10.17;;;;;;;21.98;100.00;100922.50;2083022;28;20627;-67
2023/07/03 03:36:11;;;;;;;12.23;10.43;;;;;;;22.01;100.00;100923.53;2085691;28;20289;-67
2023/07/03 03:37:11;;;;;;;11.97;10.77;;;;;;;22.04;100.00;100925.31;2085092;28;20235;-67
2023/07/03 03:38:11;;;;;;;12.10;9.73;;;;;;;22.07;100.00;100916.66;2080195;28;20564;-67
2023/07/03 03:39:12;;;;;;;12.37;9.97;;;;;;;22.00;100.00;100917.09;2074110;28;20729;-67
2023/07/03 03:40:14;;;;;;;12.27;10.30;;;;;;;21.91;100.00;100896.78;2080920;28;20188;-67
2023/07/03 03:41:14;;;;;;;14.47;10.80;;;;;;;21.99;100.00;100911.97;2081456;28;20638;-68
2023/07/03 03:42:14;;;;;;;13.20;10.73;;;;;;;22.10;100.00;100918.44;2081143;28;20226;-67
2023/07/03 03:43:15;;;;;;;12.70;10.17;;;;;;;22.08;100.00;100914.59;2081001;28;20225;-67
2023/07/03 03:44:15;;;;;;;12.93;11.47;;;;;;;22.18;100.00;100921.56;2080356;28;20242;-68
2023/07/03 03:45:16;;;;;;;13.03;10.30;;;;;;;21.48;100.00;100814.16;2080671;28;20188;-68
2023/07/03 03:46:16;;;;;;;11.60;9.60;;;;;;;22.29;100.00;100913.16;2080983;28;20197;-67
2023/07/03 03:47:19;;;;;;;13.03;9.83;;;;;;;22.28;100.00;100905.97;2080436;28;20674;-67
2023/07/03 03:48:19;;;;;;;11.00;9.73;;;;;;;22.32;100.00;100912.16;2078860;28;20610;-67
2023/07/03 03:49:21;;;;;;;11.80;10.60;;;;;;;22.32;100.00;100921.38;2073276;28;20251;-67
2023/07/03 03:50:22;;;;;;;10.77;9.67;;;;;;;21.56;100.00;100809.63;2080625;28;20196;-67
2023/07/03 03:51:23;;;;;;;11.13;9.73;;;;;;;22.34;100.00;100918.84;2080881;28;20220;-67
2023/07/03 03:52:23;;;;;;;11.27;10.17;;;;;;;21.99;100.00;100858.34;2080879;28;20642;-67
2023/07/03 03:53:24;;;;;;;11.63;10.40;;;;;;;22.42;100.00;100914.25;2080551;28;20204;-67
2023/07/03 03:54:27;;;;;;;12.53;10.00;;;;;;;21.92;100.00;100833.44;2080858;28;20197;-67
2023/07/03 03:55:27;;;;;;;11.90;10.67;;;;;;;22.49;100.00;100919.47;2080643;28;20192;-67
2023/07/03 03:56:28;;;;;;;12.93;10.00;;;;;;;22.53;100.00;100924.84;2080876;28;20185;-67
2023/07/03 03:57:28;;;;;;;11.37;10.30;;;;;;;22.56;100.00;100930.25;2080949;28;20617;-67
2023/07/03 03:58:29;;;;;;;11.80;10.53;;;;;;;22.52;100.00;100914.84;2080041;28;20605;-67
2023/07/03 03:59:29;;;;;;;11.37;9.73;;;;;;;22.64;100.00;100927.72;2080247;28;20596;-68
2023/07/03 04:00:30;;;;;;;10.93;9.87;;;;;;;22.68;100.00;100929.00;2080250;28;20192;-68
2023/07/03 04:01:32;;;;;;;11.23;9.70;;;;;;;22.71;100.00;100930.03;2077935;28;20203;-68
2023/07/03 04:02:32;;;;;;;11.33;10.27;;;;;;;22.74;100.00;100927.00;2079404;28;20280;-68
2023/07/03 04:03:32;;;;;;;13.93;10.27;;;;;;;22.78;100.00;100926.75;2079704;28;20224;-68
2023/07/03 04:04:33;;;;;;;13.97;10.90;;;;;;;21.87;100.00;100780.56;2079777;28;20189;-68
2023/07/03 04:05:34;;;;;;;11.60;10.40;;;;;;;22.82;100.00;100922.38;2079467;28;20717;-68
2023/07/03 04:06:38;;;;;;;11.27;10.10;;;;;;;22.51;100.00;100868.88;2080597;28;20673;-68
2023/07/03 04:07:39;;;;;;;12.07;10.87;;;;;;;22.88;100.00;100928.06;2080681;28;20611;-68
2023/07/03 04:08:39;;;;;;;12.00;10.53;;;;;;;22.92;100.00;100923.69;2080002;28;20347;-68
2023/07/03 04:09:39;;;;;;;15.53;10.80;;;;;;;22.85;100.00;100907.25;2080344;28;20560;-68
2023/07/03 04:10:42;;;;;;;12.57;10.40;;;;;;;22.93;100.00;100924.47;2080381;28;20227;-68
2023/07/03 04:11:43;;;;;;;12.43;10.90;;;;;;;22.99;100.00;100920.38;2080282;28;20185;-68
2023/07/03 04:12:43;;;;;;;10.50;9.50;;;;;;;23.00;100.00;100924.75;2080088;28;20675;-68
2023/07/03 04:13:43;;;;;;;10.90;9.90;;;;;;;23.02;100.00;100927.06;2079597;28;20232;-68
2023/07/03 04:14:44;;;;;;;11.60;9.97;;;;;;;22.91;100.00;100910.84;2079188;28;20187;-68
2023/07/03 04:15:57;;;;;;;11.30;10.13;;;;;;;23.04;100.00;100928.09;2079683;28;20580;-68
2023/07/03 04:17:00;;;;;;;11.30;9.67;;;;;;;23.09;100.00;100926.56;2079557;28;20562;-68
2023/07/03 04:18:01;;;;;;;12.70;9.60;;;;;;;23.10;100.00;100928.88;2079137;28;20227;-68
2023/07/03 04:19:01;;;;;;;12.70;10.00;;;;;;;23.13;100.00;100927.84;2080231;28;20221;-68
2023/07/03 04:20:07;;;;;;;10.97;9.27;;;;;;;23.10;100.00;100937.38;2080193;28;20196;-68
2023/07/03 04:21:08;;;;;;;10.00;9.00;;;;;;;23.04;100.00;100907.53;2080026;28;20570;-68
2023/07/03 04:22:08;;;;;;;12.23;9.93;;;;;;;23.23;100.00;100934.06;2080287;28;20177;-68
2023/07/03 04:23:09;;;;;;;10.43;9.43;;;;;;;23.22;100.00;100930.47;2079524;28;20279;-67
2023/07/03 04:24:09;;;;;;;10.27;8.83;;;;;;;23.31;100.00;100935.88;2077860;28;20205;-67
2023/07/03 04:25:10;;;;;;;10.30;9.20;;;;;;;23.30;100.00;100937.16;2079585;28;20516;-67
2023/07/03 04:26:11;;;;;;;10.77;9.77;;;;;;;22.95;100.00;100876.69;2080062;28;20583;-68
2023/07/03 04:27:11;;;;;;;10.73;9.37;;;;;;;23.31;100.00;100941.53;2080590;28;20208;-67
2023/07/03 04:28:13;;;;;;;10.80;9.07;;;;;;;23.32;100.00;100940.25;2079919;28;20658;-68
2023/07/03 04:29:13;;;;;;;10.33;9.33;;;;;;;23.36;100.00;100940.78;2080355;28;20761;-68
2023/07/03 04:30:14;;;;;;;9.87;8.97;;;;;;;23.11;100.00;100892.88;2079492;28;20675;-68
2023/07/03 04:31:14;;;;;;;10.40;9.13;;;;;;;23.02;100.00;100881.84;2080213;28;20279;-67
2023/07/03 04:32:14;;;;;;;12.07;9.70;;;;;;;23.34;100.00;100929.19;2079937;28;20193;-68
2023/07/03 04:33:16;;;;;;;10.73;9.07;;;;;;;23.45;100.00;100937.69;2080186;28;20184;-67
2023/07/03 04:34:16;;;;;;;9.73;8.80;;;;;;;23.47;100.00;100937.94;2079488;28;20284;-68
2023/07/03 04:35:16;;;;;;;11.77;9.63;;;;;;;23.54;100.00;100936.66;2077949;28;20279;-68
2023/07/03 04:36:20;;;;;;;9.97;8.80;;;;;;;23.23;100.00;100883.19;2078400;28;20270;-67
2023/07/03 04:37:21;;;;;;;9.90;9.00;;;;;;;23.59;100.00;100939.47;2077862;28;20682;-67
2023/07/03 04:38:23;;;;;;;9.97;8.97;;;;;;;23.66;100.00;100941.03;2076407;28;20676;-67
2023/07/03 04:39:24;;;;;;;11.23;9.20;;;;;;;23.68;100.00;100941.28;2076781;28;20201;-67
2023/07/03 04:40:24;;;;;;;9.30;8.27;;;;;;;23.60;100.00;100929.69;2076964;28;20666;-67